Terminal Aerodrome Forecast
Issued by NWS Memphis, TN

Home | Current Version | Previous Version | Text Only | Print | Product List | Glossary On
Versions: 1 2 3 4 5 6 7 8 9 10 11 12 13 14 15
000
FTUS44 KMEG 181400 AAB
TAFJBR
TAF AMD
KJBR 181441Z 1815/1912 06004KT P6SM VCTS BKN025CB OVC040
      TEMPO 1815/1816 5SM SHRA BR BKN012
     FM181800 05006KT P6SM BKN030 BKN250
     FM190000 04004KT P6SM SCT035
      TEMPO 1908/1912 5SM BR=

USA.gov is the U.S. government's official web portal to all federal, state and local government web resources and services.